createdAt,value
2022-10-02T00:03:08.156Z,26.23
2022-10-02T00:08:08.324Z,26.47
2022-10-02T00:13:15.481Z,26.43
2022-10-02T00:18:05.820Z,26.20
2022-10-02T00:23:04.999Z,26.62
2022-10-02T00:28:04.222Z,26.92
2022-10-02T00:33:03.410Z,26.70
2022-10-02T00:38:05.713Z,27.19
2022-10-02T00:43:01.874Z,27.46
2022-10-02T00:48:02.049Z,26.88
2022-10-02T00:52:59.238Z,26.40
2022-10-02T00:57:59.465Z,26.26
2022-10-02T01:02:58.782Z,25.95
2022-10-02T01:07:58.120Z,25.79
2022-10-02T01:12:57.433Z,25.67
2022-10-02T01:17:56.743Z,25.36
2022-10-02T01:22:56.062Z,25.33
2022-10-02T01:27:55.432Z,25.08
2022-10-02T01:32:54.585Z,24.62
2022-10-02T01:37:55.727Z,24.57
2022-10-02T01:42:53.056Z,24.30
2022-10-02T01:47:53.361Z,24.05
2022-10-02T01:52:51.638Z,23.51
2022-10-02T01:57:51.900Z,23.05
2022-10-02T02:02:51.195Z,23.01
2022-10-02T02:07:49.503Z,22.85
2022-10-02T02:12:48.784Z,23.13
2022-10-02T02:17:48.106Z,23.13
2022-10-02T02:22:48.443Z,22.64
2022-10-02T02:27:47.785Z,22.39
2022-10-02T02:32:46.068Z,22.54
2022-10-02T02:37:46.410Z,22.37
2022-10-02T02:42:44.538Z,21.91
2022-10-02T02:47:43.841Z,22.24
2022-10-02T02:52:43.167Z,22.31
2022-10-02T02:57:42.501Z,22.42
2022-10-02T03:02:42.819Z,22.47
2022-10-02T03:07:41.140Z,22.35
2022-10-02T03:12:40.449Z,22.35
2022-10-02T03:17:39.889Z,22.30
2022-10-02T03:22:40.043Z,22.30
2022-10-02T03:27:38.359Z,22.17
2022-10-02T03:32:37.686Z,22.03
2022-10-02T03:37:38.997Z,22.10
2022-10-02T03:42:35.291Z,22.07
2022-10-02T03:47:37.610Z,21.77
2022-10-02T03:52:34.909Z,21.92
2022-10-02T03:57:34.228Z,22.64
2022-10-02T04:02:33.568Z,22.70
2022-10-02T04:07:32.713Z,22.27
2022-10-02T04:12:32.036Z,22.02
2022-10-02T04:17:32.418Z,22.36
2022-10-02T04:22:31.540Z,22.43
2022-10-02T04:27:29.952Z,22.22
2022-10-02T04:32:29.069Z,22.21
2022-10-02T04:37:28.424Z,22.14
2022-10-02T04:42:26.721Z,21.86
2022-10-02T04:47:26.869Z,21.80
2022-10-02T04:52:26.209Z,21.92
2022-10-02T04:57:25.361Z,22.00
2022-10-02T05:02:27.697Z,22.20
2022-10-02T05:07:23.778Z,22.27
2022-10-02T05:12:23.101Z,22.06
2022-10-02T05:17:22.220Z,21.90
2022-10-02T05:22:21.554Z,21.74
2022-10-02T05:27:20.882Z,21.88
2022-10-02T05:32:20.190Z,21.82
2022-10-02T05:37:20.480Z,21.50
2022-10-02T05:42:19.806Z,21.68
2022-10-02T05:47:18.105Z,21.52
2022-10-02T05:52:17.404Z,21.52
2022-10-02T05:57:18.696Z,22.20
2022-10-02T06:02:16.053Z,22.62
2022-10-02T06:07:16.179Z,22.68
2022-10-02T06:12:15.491Z,22.98
2022-10-02T06:17:16.818Z,23.17
2022-10-02T06:22:14.077Z,23.09
2022-10-02T06:27:12.372Z,23.16
2022-10-02T06:32:11.663Z,23.15
2022-10-02T06:37:10.964Z,22.94
2022-10-02T06:42:11.239Z,23.09
2022-10-02T06:47:11.520Z,22.94
2022-10-02T06:52:10.794Z,22.79
2022-10-02T06:57:08.140Z,22.77
2022-10-02T07:02:08.350Z,22.67
2022-10-02T07:07:06.444Z,22.82
2022-10-02T07:12:05.751Z,22.79
2022-10-02T07:17:06.045Z,22.65
2022-10-02T07:22:20.334Z,22.76
2022-10-02T07:27:04.497Z,22.65
2022-10-02T07:32:02.806Z,22.60
2022-10-02T07:37:03.110Z,22.58
2022-10-02T07:42:02.395Z,22.64
2022-10-02T07:47:00.717Z,22.79
2022-10-02T07:51:59.851Z,22.98
2022-10-02T07:56:59.147Z,23.13
2022-10-02T08:01:58.549Z,23.23
2022-10-02T08:06:58.663Z,23.39
2022-10-02T08:11:57.933Z,23.50
2022-10-02T08:16:56.372Z,23.54
2022-10-02T08:21:56.509Z,23.69
2022-10-02T08:26:55.613Z,23.75
2022-10-02T08:31:54.023Z,23.88
2022-10-02T08:36:53.196Z,23.94
2022-10-02T08:41:52.498Z,23.90
2022-10-02T08:46:51.797Z,23.93
2022-10-02T08:51:51.098Z,23.91
2022-10-02T08:56:50.401Z,24.10
2022-10-02T09:01:49.699Z,24.85
2022-10-02T09:06:49.002Z,25.09
2022-10-02T09:11:48.332Z,25.64
2022-10-02T09:16:47.659Z,25.73
2022-10-02T09:21:47.916Z,25.92
2022-10-02T09:26:47.214Z,26.26
2022-10-02T09:31:46.543Z,26.18
2022-10-02T09:36:44.661Z,25.95
2022-10-02T09:41:43.952Z,25.97
2022-10-02T09:46:43.237Z,25.87
2022-10-02T09:51:42.537Z,26.13
2022-10-02T09:56:41.875Z,26.45
2022-10-02T10:01:41.186Z,26.45
2022-10-02T10:06:41.507Z,26.44
2022-10-02T10:11:40.904Z,26.23
2022-10-02T10:16:39.028Z,26.15
2022-10-02T10:21:37.467Z,26.17
2022-10-02T10:26:37.475Z,25.94
2022-10-02T10:31:37.067Z,25.88
2022-10-02T10:36:36.117Z,25.83
2022-10-02T10:41:35.744Z,26.01
2022-10-02T10:46:34.677Z,26.05
2022-10-02T10:51:34.211Z,26.21
2022-10-02T10:56:33.281Z,25.99
2022-10-02T11:01:33.603Z,26.13
2022-10-02T11:06:32.751Z,25.92
2022-10-02T11:11:31.023Z,25.87
2022-10-02T11:16:31.344Z,25.83
2022-10-02T11:21:29.625Z,25.69
2022-10-02T11:26:29.866Z,25.57
2022-10-02T11:31:28.188Z,25.55
2022-10-02T11:36:28.456Z,25.87
2022-10-02T11:41:26.757Z,26.47
2022-10-02T11:46:26.018Z,26.48
2022-10-02T11:51:25.303Z,26.30
2022-10-02T11:56:23.600Z,25.98
2022-10-02T12:01:23.983Z,25.90
2022-10-02T12:06:22.133Z,25.64
2022-10-02T12:11:22.370Z,25.72
2022-10-02T12:16:21.517Z,25.92
2022-10-02T12:21:21.638Z,25.83
2022-10-02T12:26:19.920Z,26.29
2022-10-02T12:31:20.130Z,26.40
2022-10-02T12:36:19.321Z,26.23
2022-10-02T12:41:18.506Z,26.05
2022-10-02T12:46:16.723Z,25.92
2022-10-02T12:51:18.028Z,25.72
2022-10-02T12:56:15.180Z,25.51
2022-10-02T13:01:15.433Z,25.67
2022-10-02T13:06:13.596Z,25.60
2022-10-02T13:11:12.817Z,25.87
2022-10-02T13:16:12.040Z,25.91
2022-10-02T13:21:12.221Z,25.91
2022-10-02T13:26:11.397Z,26.01
2022-10-02T13:31:10.615Z,25.92
2022-10-02T13:36:08.797Z,25.92
2022-10-02T13:41:08.007Z,25.85
2022-10-02T13:46:07.289Z,25.62
2022-10-02T13:51:06.513Z,25.47
2022-10-02T13:56:05.710Z,25.35
2022-10-02T14:01:04.948Z,25.17
2022-10-02T14:06:04.126Z,25.14
2022-10-02T14:11:03.306Z,25.14
2022-10-02T14:16:02.573Z,25.00
2022-10-02T14:21:01.750Z,24.96
2022-10-02T14:26:00.994Z,24.88
2022-10-02T14:31:00.160Z,24.83
2022-10-02T14:36:00.331Z,24.78
2022-10-02T14:40:59.540Z,24.90
2022-10-02T14:45:57.769Z,24.98
2022-10-02T14:50:58.967Z,25.15
2022-10-02T14:55:56.127Z,25.36
2022-10-02T15:00:56.378Z,25.45
2022-10-02T15:05:56.597Z,25.54
2022-10-02T15:10:53.777Z,25.47
2022-10-02T15:15:55.044Z,25.28
2022-10-02T15:20:52.190Z,25.20
2022-10-02T15:25:51.393Z,25.13
2022-10-02T15:30:50.572Z,25.05
2022-10-02T15:35:50.752Z,24.91
2022-10-02T15:40:50.946Z,24.81
2022-10-02T15:45:49.230Z,24.71
2022-10-02T15:50:47.430Z,24.60
2022-10-02T15:55:47.650Z,24.50
2022-10-02T16:00:46.854Z,24.40
2022-10-02T16:05:45.016Z,24.49
2022-10-02T16:10:45.203Z,24.57
2022-10-02T16:15:42.399Z,24.71
2022-10-02T16:20:42.544Z,25.03
2022-10-02T16:25:43.709Z,25.13
2022-10-02T16:30:40.901Z,25.14
2022-10-02T16:35:43.687Z,25.14
2022-10-02T16:40:39.260Z,25.13
2022-10-02T16:45:39.553Z,24.99
2022-10-02T16:50:42.197Z,24.87
2022-10-02T16:55:38.016Z,24.83
2022-10-02T17:00:37.241Z,24.58
2022-10-02T17:05:37.438Z,24.68
2022-10-02T17:10:34.640Z,24.27
2022-10-02T17:15:35.816Z,24.22
2022-10-02T17:20:32.993Z,23.88
2022-10-02T17:25:32.206Z,23.80
2022-10-02T17:30:31.456Z,23.58
2022-10-02T17:35:30.637Z,23.36
2022-10-02T17:40:30.833Z,23.27
2022-10-02T17:45:29.093Z,23.40
2022-10-02T17:50:28.311Z,24.18
2022-10-02T17:55:28.576Z,24.27
2022-10-02T18:00:26.828Z,24.27
2022-10-02T18:05:28.035Z,24.42
2022-10-02T18:10:24.411Z,24.40
2022-10-02T18:15:26.149Z,24.61
2022-10-02T18:20:24.741Z,24.40
2022-10-02T18:25:22.929Z,24.35
2022-10-02T18:30:22.132Z,24.31
2022-10-02T18:35:21.301Z,24.34
2022-10-02T18:40:20.517Z,23.84
2022-10-02T18:45:20.976Z,24.08
2022-10-02T18:50:20.032Z,24.03
2022-10-02T18:55:18.476Z,23.75
2022-10-02T19:00:19.509Z,24.00
2022-10-02T19:05:15.708Z,23.85
2022-10-02T19:10:16.889Z,23.42
2022-10-02T19:15:16.057Z,23.94
2022-10-02T19:20:17.250Z,24.34
2022-10-02T19:25:12.405Z,25.25
2022-10-02T19:30:12.605Z,25.32
2022-10-02T19:35:12.929Z,25.61
2022-10-02T19:40:13.189Z,25.45
2022-10-02T19:45:10.255Z,25.18
2022-10-02T19:50:09.423Z,25.25
2022-10-02T19:55:12.310Z,25.38
2022-10-02T20:00:09.119Z,25.24
2022-10-02T20:05:09.185Z,25.25
2022-10-02T20:10:06.344Z,25.21
2022-10-02T20:15:06.504Z,25.25
2022-10-02T20:20:05.691Z,25.05
2022-10-02T20:25:03.863Z,25.50
2022-10-02T20:30:03.047Z,25.57
2022-10-02T20:35:02.239Z,25.58
2022-10-02T20:40:02.506Z,25.62
2022-10-02T20:45:01.725Z,25.55
2022-10-02T20:49:59.915Z,25.65
2022-10-02T20:55:00.102Z,25.13
2022-10-02T20:59:58.353Z,24.99
2022-10-02T21:04:59.567Z,25.09
2022-10-02T21:09:56.746Z,25.43
2022-10-02T21:14:56.924Z,25.77
2022-10-02T21:19:55.099Z,26.01
2022-10-02T21:24:54.409Z,25.97
2022-10-02T21:29:55.637Z,25.67
2022-10-02T21:34:53.788Z,25.92
2022-10-02T21:39:52.952Z,25.94
2022-10-02T21:44:51.164Z,25.65
2022-10-02T21:49:50.313Z,25.54
2022-10-02T21:54:49.498Z,25.40
2022-10-02T21:59:48.658Z,25.57
2022-10-02T22:04:47.820Z,25.80
2022-10-02T22:09:46.965Z,26.32
2022-10-02T22:14:46.149Z,26.37
2022-10-02T22:19:45.316Z,26.67
2022-10-02T22:24:44.499Z,26.55
2022-10-02T22:29:44.684Z,26.28
2022-10-02T22:34:42.871Z,25.55
2022-10-02T22:39:42.024Z,25.28
2022-10-02T22:44:43.221Z,25.18
2022-10-02T22:49:40.391Z,25.27
2022-10-02T22:54:39.578Z,25.08
2022-10-02T22:59:38.744Z,25.51
2022-10-02T23:04:37.970Z,25.52
2022-10-02T23:09:37.167Z,25.67
2022-10-02T23:14:36.346Z,25.65
2022-10-02T23:19:37.619Z,25.72
2022-10-02T23:24:34.793Z,25.75
2022-10-02T23:29:34.018Z,25.79
2022-10-02T23:34:34.199Z,25.54
2022-10-02T23:39:33.371Z,25.40
2022-10-02T23:44:32.669Z,24.93
2022-10-02T23:49:32.000Z,24.18
2022-10-02T23:54:30.306Z,23.63
2022-10-02T23:59:29.634Z,23.51
